Bucareste, Roménia

05:41 PM EET em 27 de Novembro de 2014 (GMT +0200)
NX Data | Change Station
CLOSE
Current Station
Estação Meteorológica Particular
Location: Bucharest, BUCHAREST
Altitude: 279 ft
Estações Meteorológicas Próximas

Elev 279 ft 44.48 °N, 26.12 °E | Updated 3 minutes ago

Overcast
Céu Encoberto
31.2 °F
Aparente 26 °F
N
5.4
Vento Variável Vento de SE
Gusts 5.4 mph

Hoje
Máxima -- | Mínima -- °F
--% Possibilidade de Precip.
Ontem
Máxima -- | Mínima -- °F
Precip. -- pol
7:26 AM 4:39 PM
Quarto crescente, 30% visible
Pressão 30.27 pol
Visibilidade 6.2 milhas
Nuvens Céu Encoberto 2400 ft
Sensação Térmica 26 °F
Ponto de Orvalho 22 °F
Humidade 69%
Chuva 0.00 pol
Altura de Neve Não disponível
UV 0 em vez de 12
Pólen Não disponível
Qualidade do Ar Não disponível
Flu Activity Não disponível
METAR LRBS 271530Z 07005KT 040V100 9999 OVC024 M01/M04 Q1025 NOSIG

More Conditions Fewer Conditions

Pressão 30.27 pol
Visibilidade 6.2 milhas
Nuvens Céu Encoberto 2400 ft
Sensação Térmica 26 °F
Ponto de Orvalho 22 °F
Humidade 69%
Chuva 0.00 pol
Altura de Neve Não disponível
UV 0 em vez de 12
Pólen Não disponível
Qualidade do Ar Não disponível
Flu Activity Não disponível
METAR LRBS 271530Z 07005KT 040V100 9999 OVC024 M01/M04 Q1025 NOSIG

More Conditions Fewer Conditions

10-Day Weather Forecast

Almanac

Astronomia

Nov. 27, 2014 Nascer Pôr
Hora atual
Crepúsculo civil
Crepúsculo náutico
Crepúsculo astronómico
Lua
Comprimento da luz visível
Duração do Dia
Tomorrow will be .
, % of the Moon is Illuminated

Extremos de Hoje

Altitude na localidade Altura mais baixa na localidade

Community

WunderPhotos

Upload Photos

1,774,019 fotografias inseridas!

WunderBlogs® & News

Nearby

Qualidade do Ar

  Qualidade do Ar Índice da Q.A. Poluente
Not available.

Altura da Neve

Estação altura Altitude

Actividade Sísmisca

Cidade Distância Mag. Hora & Data
Mínima magnitude apresentada é 2.5.

Temperaturas das Águas Costeiras

Local Temperatura

Estações Meteorológicas Próximas